Bradner, OH (43406)

4:51 PM EDT on August 27, 2015 (GMT -0400)
OHDOT | | Change Station
CLOSE
Current Station
Personal Weather Station
Location: Bradner, OH
Elevation: 684 ft
Nearby Weather Stations

Elev 684 ft 41.34 °N, 83.42 °W | Updated 31 minutes ago

Overcast
Overcast
72.0 °F
Feels Like 76 °F
N
3.0
Wind Variable Wind from North
Gusts 6.0 mph

Today
High -- | Low -- °F
--% Chance of Precip.
Yesterday
High -- | Low -- °F
Precip. -- in
6:54 AM 8:15 PM
Waxing Gibbous, 95% visible
Pressure 30.17 in
Visibility 10.0 miles
Clouds Overcast 4500 ft
Heat Index 76 °F
Dew Point 58.0 °F
Humidity 60%
Rainfall in
Snow Depth Not available.
UV 2 out of 12
Pollen 9.40 out of 12
Air Quality Not available.
Flu Activity Not available.
METAR KTDZ 271953Z AUTO VRB05KT 10SM OVC045 21/12 A3017 RMK AO2 SLP214 T02110122
Pressure 30.17 in
Visibility 10.0 miles
Clouds Overcast 4500 ft
Heat Index 76 °F
Dew Point 58.0 °F
Humidity 60%
Rainfall in
Snow Depth Not available.
UV 2 out of 12
Pollen 9.40 out of 12
Air Quality Not available.
Flu Activity Not available.
METAR KTDZ 271953Z AUTO VRB05KT 10SM OVC045 21/12 A3017 RMK AO2 SLP214 T02110122

10-Day Weather Forecast

×

Almanac

Astronomy

Aug. 27, 2015 Rise Set
Actual Time
Civil Twilight
Nautical Twilight
Astronomical Twilight
Moon
Length of Visible Light
Length of Day
Tomorrow will be .
, % of the Moon is Illuminated

Today's Extremes

State Highs State Lows

Community

WunderPhotos

Upload Photos

1,850,212 photos uploaded!

WunderBlogs® & News

Nearby

Air Quality

  Air Quality AQ Index Pollutant
Not available.

Snow Depth

Station Depth Elevation

Earthquake Activity

City Distance Mag. Time & Date
Minimum magnitude displayed is 2.5.

Coastal Water Temperatures

Place Temperature

Stations

Nearby Weather Stations

Station Location Temp. Windchill Dew Point Humidity Wind Precip. Elev Updated Type